Rhinelander, WI (54501)

5:54 PM CDT on August 24, 2016 (GMT -0500)
Rhinelander CW5781 | | Change Station

Elev 1520 ft 45.64 °N, 89.39 °W | Updated 364 days ago

Partly Cloudy
Partly Cloudy
70 °F
Feels Like 70 °F
N
4
Wind Variable Wind from West
Gusts mph

Today
High -- | Low -- °F
--% Chance of Precip.
Yesterday
High -- | Low -- °F
Precip. -- in
Pressure 29.88 in
Visibility 10.0 miles
Clouds Mostly Cloudy 4100 ft
Dew Point 63 °F
Humidity 77%
Rainfall in
Snow Depth Not available.
6:09 AM 7:48 PM
Waning Gibbous, 52% visible
METAR KRHI 242153Z AUTO 28012G18KT 10SM BKN041 24/19 A2990 RMK AO2 SLP117 T02390189 TSNO
Pressure 29.88 in
Visibility 10.0 miles
Clouds Mostly Cloudy 4100 ft
Dew Point 63 °F
Humidity 77%
Rainfall in
Snow Depth Not available.
6:09 AM 7:48 PM
Waning Gibbous, 52% visible
METAR KRHI 242153Z AUTO 28012G18KT 10SM BKN041 24/19 A2990 RMK AO2 SLP117 T02390189 TSNO

10-Day Weather Forecast

Almanac

Astronomy

Aug. 24, 2016 Rise Set
Actual Time
Civil Twilight
Nautical Twilight
Astronomical Twilight
Moon
Length of Visible Light
Length of Day
Tomorrow will be .
, % of the Moon is Illuminated

Today's Extremes

State Highs State Lows

Community

WunderPhotos

Upload Photos

1,934,728 photos uploaded!

WunderBlog® & News

Nearby

Air Quality

  Air Quality AQ Index Pollutant
Not available.

Snow Depth

Station Depth Elevation

Earthquake Activity

City Distance Mag. Time & Date
Minimum magnitude displayed is 2.5.

Coastal Water Temperatures

Place Temperature

Stations

Nearby Weather Stations

Station Location Temp. Windchill Dew Point Humidity Wind Precip. Elev Updated Type
                   

Watches & Warnings

There are currently no watches in effect.